createdAt,value
2018-03-06T00:00:40.961Z,116.17
2018-03-06T00:03:10.122Z,108.50
2018-03-06T00:05:39.326Z,107.03
2018-03-06T00:08:08.486Z,108.43
2018-03-06T00:10:37.694Z,104.80
2018-03-06T00:13:06.866Z,104.70
2018-03-06T00:15:36.025Z,104.43
2018-03-06T00:18:05.205Z,101.23
2018-03-06T00:20:34.365Z,100.90
2018-03-06T00:23:03.517Z,101.17
2018-03-06T00:25:32.751Z,100.80
2018-03-06T00:28:01.905Z,101.33
2018-03-06T00:30:31.061Z,103.57
2018-03-06T00:33:00.258Z,102.33
2018-03-06T00:35:29.410Z,100.17
2018-03-06T00:37:58.574Z,95.93
2018-03-06T00:40:27.783Z,96.50
2018-03-06T00:42:56.942Z,90.67
2018-03-06T00:45:26.102Z,97.13
2018-03-06T00:47:55.346Z,92.03
2018-03-06T00:50:24.552Z,92.93
2018-03-06T00:52:53.665Z,89.50
2018-03-06T00:55:22.887Z,83.60
2018-03-06T00:57:52.053Z,89.50
2018-03-06T01:00:21.252Z,90.87
2018-03-06T01:02:50.457Z,84.50
2018-03-06T01:05:19.885Z,84.27
2018-03-06T01:07:49.045Z,85.67
2018-03-06T01:10:18.258Z,85.80
2018-03-06T01:12:47.470Z,79.40
2018-03-06T01:15:16.644Z,80.80
2018-03-06T01:17:45.819Z,82.27
2018-03-06T01:20:14.998Z,84.07
2018-03-06T01:22:44.168Z,76.53
2018-03-06T01:25:13.337Z,80.13
2018-03-06T01:27:42.581Z,77.77
2018-03-06T01:30:11.734Z,77.33
2018-03-06T01:32:40.882Z,79.47
2018-03-06T01:35:10.119Z,79.73
2018-03-06T01:37:39.278Z,75.60
2018-03-06T01:40:08.508Z,82.27
2018-03-06T01:42:37.675Z,76.97
2018-03-06T01:45:06.838Z,77.87
2018-03-06T01:47:36.026Z,77.77
2018-03-06T01:50:05.185Z,80.30
2018-03-06T01:52:34.341Z,74.10
2018-03-06T01:55:03.531Z,71.33
2018-03-06T01:57:32.719Z,72.77
2018-03-06T02:00:02.128Z,72.67
2018-03-06T02:02:31.269Z,74.37
2018-03-06T02:05:00.445Z,70.30
2018-03-06T02:07:29.753Z,74.90
2018-03-06T02:09:58.911Z,71.20
2018-03-06T02:12:28.099Z,71.20
2018-03-06T02:14:57.263Z,72.23
2018-03-06T02:17:26.433Z,74.97
2018-03-06T02:19:55.603Z,88.53
2018-03-06T02:22:24.761Z,70.20
2018-03-06T02:24:53.933Z,74.33
2018-03-06T02:27:23.094Z,73.80
2018-03-06T02:29:52.258Z,71.67
2018-03-06T02:32:21.450Z,76.03
2018-03-06T02:34:50.603Z,82.90
2018-03-06T02:37:19.808Z,75.80
2018-03-06T02:39:49.004Z,77.70
2018-03-06T02:42:18.167Z,80.63
2018-03-06T02:44:47.360Z,84.47
2018-03-06T02:47:16.517Z,79.63
2018-03-06T02:49:45.722Z,84.47
2018-03-06T02:52:14.919Z,81.47
2018-03-06T02:54:44.066Z,85.97
2018-03-06T02:57:13.213Z,84.10
2018-03-06T02:59:42.413Z,83.07
2018-03-06T03:02:11.594Z,85.93
2018-03-06T03:04:40.764Z,85.43
2018-03-06T03:07:09.954Z,82.63
2018-03-06T03:09:39.674Z,85.03
2018-03-06T03:12:08.829Z,83.13
2018-03-06T03:14:38.043Z,83.57
2018-03-06T03:17:07.224Z,91.00
2018-03-06T03:19:36.387Z,90.07
2018-03-06T03:22:05.659Z,82.10
2018-03-06T03:24:34.819Z,94.97
2018-03-06T03:27:03.980Z,92.87
2018-03-06T03:29:33.173Z,90.50
2018-03-06T03:32:02.330Z,86.03
2018-03-06T03:34:31.482Z,93.83
2018-03-06T03:37:00.666Z,91.03
2018-03-06T03:39:29.853Z,94.00
2018-03-06T03:41:59.010Z,94.40
2018-03-06T03:44:28.189Z,96.80
2018-03-06T03:46:57.365Z,90.60
2018-03-06T03:49:26.521Z,90.27
2018-03-06T03:51:55.734Z,87.77
2018-03-06T03:54:24.893Z,86.97
2018-03-06T03:56:54.047Z,95.07
2018-03-06T03:59:23.230Z,95.40
2018-03-06T04:01:52.393Z,88.90
2018-03-06T04:04:21.549Z,87.97
2018-03-06T04:06:50.789Z,94.80
2018-03-06T04:09:19.952Z,92.47
2018-03-06T04:11:49.559Z,89.87
2018-03-06T04:14:18.739Z,92.27
2018-03-06T04:16:47.887Z,90.10
2018-03-06T04:19:17.081Z,86.10
2018-03-06T04:21:46.252Z,86.37
2018-03-06T04:24:15.403Z,90.13
2018-03-06T04:26:44.625Z,90.40
2018-03-06T04:29:13.792Z,87.17
2018-03-06T04:31:42.950Z,89.90
2018-03-06T04:34:12.123Z,88.17
2018-03-06T04:36:41.290Z,94.80
2018-03-06T04:39:10.451Z,87.60
2018-03-06T04:41:39.619Z,90.27
2018-03-06T04:44:08.766Z,88.07
2018-03-06T04:46:37.930Z,89.00
2018-03-06T04:49:07.134Z,89.60
2018-03-06T04:51:36.303Z,92.90
2018-03-06T04:54:05.471Z,92.47
2018-03-06T04:56:34.661Z,84.50
2018-03-06T04:59:03.822Z,86.13
2018-03-06T05:01:32.990Z,91.97
2018-03-06T05:04:02.185Z,90.37
2018-03-06T05:06:31.373Z,91.07
2018-03-06T05:09:00.545Z,92.30
2018-03-06T05:11:29.768Z,89.90
2018-03-06T05:13:58.949Z,87.97
2018-03-06T05:16:28.130Z,88.17
2018-03-06T05:18:57.324Z,82.93
2018-03-06T05:21:26.494Z,81.60
2018-03-06T05:23:55.694Z,81.87
2018-03-06T05:26:24.865Z,78.93
2018-03-06T05:28:54.022Z,82.90
2018-03-06T05:31:23.188Z,78.50
2018-03-06T05:33:52.406Z,80.43
2018-03-06T05:36:21.563Z,78.50
2018-03-06T05:38:50.729Z,77.90
2018-03-06T05:41:19.910Z,76.27
2018-03-06T05:43:49.142Z,75.20
2018-03-06T05:46:18.298Z,82.40
2018-03-06T05:48:47.477Z,74.50
2018-03-06T05:51:16.668Z,77.03
2018-03-06T05:53:45.845Z,75.70
2018-03-06T05:56:15.059Z,76.70
2018-03-06T05:58:44.397Z,73.73
2018-03-06T06:01:13.557Z,74.50
2018-03-06T06:03:43.599Z,74.27
2018-03-06T06:06:12.791Z,72.03
2018-03-06T06:08:41.972Z,73.70
2018-03-06T06:11:11.157Z,71.90
2018-03-06T06:13:40.314Z,75.10
2018-03-06T06:16:09.622Z,77.80
2018-03-06T06:18:38.806Z,72.00
2018-03-06T06:21:07.961Z,80.50
2018-03-06T06:23:37.149Z,75.67
2018-03-06T06:26:06.314Z,70.43
2018-03-06T06:28:35.498Z,72.90
2018-03-06T06:31:04.644Z,71.53
2018-03-06T06:33:33.789Z,74.37
2018-03-06T06:36:02.966Z,68.23
2018-03-06T06:38:32.098Z,72.43
2018-03-06T06:41:01.536Z,68.17
2018-03-06T06:43:30.708Z,74.40
2018-03-06T06:45:59.861Z,71.33
2018-03-06T06:48:29.028Z,72.83
2018-03-06T06:50:58.173Z,71.20
2018-03-06T06:53:27.309Z,72.50
2018-03-06T06:55:56.499Z,74.33
2018-03-06T06:58:25.648Z,69.60
2018-03-06T07:00:54.805Z,75.47
2018-03-06T07:03:23.997Z,69.30
2018-03-06T07:05:53.143Z,70.50
2018-03-06T07:08:22.315Z,73.20
2018-03-06T07:10:51.461Z,77.80
2018-03-06T07:13:20.602Z,73.40
2018-03-06T07:15:49.804Z,79.53
2018-03-06T07:18:18.943Z,77.63
2018-03-06T07:20:48.085Z,80.17
2018-03-06T07:23:17.259Z,82.33
2018-03-06T07:25:46.419Z,82.10
2018-03-06T07:28:15.572Z,90.97
2018-03-06T07:30:44.755Z,90.70
2018-03-06T07:33:13.903Z,91.33
2018-03-06T07:35:43.064Z,95.00
2018-03-06T07:38:12.266Z,88.97
2018-03-06T07:40:41.433Z,96.20
2018-03-06T07:43:10.608Z,96.07
2018-03-06T07:45:39.801Z,93.43
2018-03-06T07:48:08.951Z,90.47
2018-03-06T07:50:38.110Z,94.37
2018-03-06T07:53:07.277Z,94.20
2018-03-06T07:55:36.426Z,95.53
2018-03-06T07:58:05.584Z,91.10
2018-03-06T08:00:34.780Z,92.80
2018-03-06T08:03:03.931Z,88.57
2018-03-06T08:05:33.184Z,88.47
2018-03-06T08:08:02.332Z,83.23
2018-03-06T08:10:31.470Z,86.00
2018-03-06T08:13:00.625Z,75.67
2018-03-06T08:15:29.778Z,80.40
2018-03-06T08:17:58.923Z,81.80
2018-03-06T08:20:28.385Z,82.57
2018-03-06T08:22:57.517Z,83.40
2018-03-06T08:25:26.662Z,83.40
2018-03-06T08:27:55.848Z,77.07
2018-03-06T08:30:24.997Z,79.83
2018-03-06T08:32:54.272Z,79.57
2018-03-06T08:35:23.412Z,76.17
2018-03-06T08:37:52.564Z,79.57
2018-03-06T08:40:21.750Z,74.00
2018-03-06T08:42:50.906Z,78.00
2018-03-06T08:45:20.057Z,72.70
2018-03-06T08:47:49.224Z,78.27
2018-03-06T08:50:18.358Z,77.03
2018-03-06T08:52:47.505Z,77.03
2018-03-06T08:55:16.664Z,74.27
2018-03-06T08:57:45.837Z,71.47
2018-03-06T09:00:15.010Z,70.03
2018-03-06T09:02:44.168Z,70.10
2018-03-06T09:05:13.371Z,70.83
2018-03-06T09:07:42.507Z,73.07
2018-03-06T09:10:11.641Z,74.40
2018-03-06T09:12:40.817Z,68.87
2018-03-06T09:15:09.967Z,68.77
2018-03-06T09:17:39.150Z,68.70
2018-03-06T09:20:08.304Z,69.00
2018-03-06T09:22:37.471Z,72.17
2018-03-06T09:25:06.646Z,69.87
2018-03-06T09:27:35.797Z,66.87
2018-03-06T09:30:04.977Z,69.20
2018-03-06T09:32:34.157Z,69.73
2018-03-06T09:35:03.281Z,67.00
2018-03-06T09:37:32.450Z,64.10
2018-03-06T09:40:01.585Z,67.97
2018-03-06T09:42:30.725Z,68.07
2018-03-06T09:44:59.905Z,68.27
2018-03-06T09:47:29.047Z,72.67
2018-03-06T09:49:58.193Z,70.90
2018-03-06T09:55:15.786Z,66.50
2018-03-06T09:57:44.923Z,69.27
2018-03-06T10:00:14.106Z,70.43
2018-03-06T10:02:43.270Z,65.30
2018-03-06T10:05:12.429Z,64.60
2018-03-06T10:07:41.581Z,67.40
2018-03-06T10:10:10.730Z,67.47
2018-03-06T10:12:39.904Z,69.87
2018-03-06T10:15:09.053Z,66.13
2018-03-06T10:17:38.222Z,67.37
2018-03-06T10:22:42.757Z,66.40
2018-03-06T10:25:11.909Z,69.70
2018-03-06T10:27:41.071Z,64.40
2018-03-06T10:30:10.250Z,67.73
2018-03-06T10:32:39.438Z,69.80
2018-03-06T10:35:08.616Z,72.47
2018-03-06T10:37:37.781Z,68.00
2018-03-06T10:40:06.918Z,65.70
2018-03-06T10:42:36.106Z,68.50
2018-03-06T10:45:05.243Z,69.80
2018-03-06T10:47:34.382Z,68.10
2018-03-06T10:50:03.549Z,69.13
2018-03-06T10:52:32.694Z,68.40
2018-03-06T10:55:01.864Z,67.77
2018-03-06T10:57:31.013Z,69.50
2018-03-06T11:00:00.196Z,67.33
2018-03-06T11:02:32.156Z,69.07
2018-03-06T11:05:01.329Z,71.07
2018-03-06T11:07:30.475Z,68.60
2018-03-06T11:09:59.657Z,70.53
2018-03-06T11:12:28.805Z,64.07
2018-03-06T11:14:57.961Z,64.03
2018-03-06T11:17:27.128Z,60.63
2018-03-06T11:19:56.277Z,65.40
2018-03-06T11:22:25.413Z,73.67
2018-03-06T11:24:54.761Z,66.10
2018-03-06T11:27:23.903Z,67.67
2018-03-06T11:29:53.089Z,68.67
2018-03-06T11:32:22.249Z,69.77
2018-03-06T11:34:51.430Z,70.50
2018-03-06T11:37:20.576Z,66.40
2018-03-06T11:39:49.800Z,69.13
2018-03-06T11:42:18.952Z,64.27
2018-03-06T11:44:48.077Z,64.93
2018-03-06T11:47:17.255Z,65.50
2018-03-06T11:49:46.393Z,67.73
2018-03-06T11:52:15.605Z,69.77
2018-03-06T11:54:44.802Z,67.27
2018-03-06T11:57:13.934Z,67.50
2018-03-06T11:59:43.079Z,66.77
2018-03-06T12:02:12.261Z,67.80
2018-03-06T12:04:41.407Z,66.93
2018-03-06T12:07:10.579Z,63.17
2018-03-06T12:09:39.747Z,63.10
2018-03-06T12:12:08.905Z,62.47
2018-03-06T12:14:38.042Z,61.63
2018-03-06T12:17:07.226Z,64.17
2018-03-06T12:19:36.362Z,60.07
2018-03-06T12:22:05.547Z,58.80
2018-03-06T12:24:34.698Z,59.60
2018-03-06T12:27:03.840Z,61.30
2018-03-06T12:29:33.027Z,60.97
2018-03-06T12:32:02.173Z,60.83
2018-03-06T12:34:31.324Z,58.83
2018-03-06T12:37:01.050Z,59.80
2018-03-06T12:39:30.197Z,60.37
2018-03-06T12:41:59.346Z,59.93
2018-03-06T12:44:28.532Z,61.57
2018-03-06T12:46:57.682Z,63.67
2018-03-06T12:49:26.828Z,63.67
2018-03-06T12:51:55.998Z,62.13
2018-03-06T12:54:25.153Z,63.47
2018-03-06T12:56:54.307Z,64.37
2018-03-06T12:59:23.563Z,59.30
2018-03-06T13:01:52.745Z,61.53
2018-03-06T13:04:21.898Z,58.57
2018-03-06T13:06:51.074Z,59.80
2018-03-06T13:09:20.230Z,59.20
2018-03-06T13:11:49.382Z,63.27
2018-03-06T13:14:18.595Z,58.90
2018-03-06T13:16:47.752Z,57.10
2018-03-06T13:19:16.901Z,57.00
2018-03-06T13:21:46.084Z,60.63
2018-03-06T13:24:15.257Z,63.50
2018-03-06T13:26:44.393Z,60.53
2018-03-06T13:29:13.559Z,58.90
2018-03-06T13:31:42.695Z,58.23
2018-03-06T13:34:11.857Z,64.43
2018-03-06T13:36:41.056Z,61.40
2018-03-06T13:39:10.700Z,60.07
2018-03-06T13:41:39.838Z,60.43
2018-03-06T13:44:09.054Z,57.53
2018-03-06T13:46:38.197Z,58.10
2018-03-06T13:49:07.399Z,61.27
2018-03-06T13:51:37.012Z,59.00
2018-03-06T13:54:06.201Z,59.73
2018-03-06T13:56:35.350Z,59.73
2018-03-06T13:59:04.526Z,61.40
2018-03-06T14:01:33.676Z,58.87
2018-03-06T14:04:02.836Z,60.30
2018-03-06T14:06:32.025Z,58.97
2018-03-06T14:09:01.167Z,57.97
2018-03-06T14:11:30.310Z,59.80
2018-03-06T14:13:59.506Z,59.27
2018-03-06T14:16:28.667Z,58.47
2018-03-06T14:18:57.838Z,57.90
2018-03-06T14:21:26.973Z,58.50
2018-03-06T14:23:56.125Z,60.27
2018-03-06T14:26:25.334Z,61.67
2018-03-06T14:28:54.490Z,60.67
2018-03-06T14:31:23.674Z,60.10
2018-03-06T14:33:52.830Z,60.50
2018-03-06T14:36:22.001Z,62.90
2018-03-06T14:38:51.147Z,62.23
2018-03-06T14:41:20.332Z,62.60
2018-03-06T14:43:49.462Z,58.97
2018-03-06T14:46:18.649Z,60.30
2018-03-06T14:48:47.797Z,62.57
2018-03-06T14:51:16.946Z,60.03
2018-03-06T14:53:46.147Z,58.17
2018-03-06T14:56:15.292Z,59.27
2018-03-06T14:58:44.482Z,57.80
2018-03-06T15:01:13.610Z,57.10
2018-03-06T15:03:42.829Z,56.83
2018-03-06T15:06:11.984Z,56.90
2018-03-06T15:08:41.163Z,57.67
2018-03-06T15:11:10.341Z,57.33
2018-03-06T15:13:39.488Z,59.30
2018-03-06T15:16:08.660Z,57.23
2018-03-06T15:18:37.821Z,55.80
2018-03-06T15:21:06.949Z,56.30
2018-03-06T15:23:36.129Z,55.83
2018-03-06T15:26:05.297Z,58.33
2018-03-06T15:28:34.479Z,57.97
2018-03-06T15:31:03.643Z,59.97
2018-03-06T15:33:32.843Z,58.90
2018-03-06T15:36:01.978Z,57.20
2018-03-06T15:38:31.134Z,61.27
2018-03-06T15:41:00.320Z,59.00
2018-03-06T15:43:29.477Z,58.33
2018-03-06T15:45:58.660Z,56.53
2018-03-06T15:48:27.797Z,62.53
2018-03-06T15:50:56.971Z,61.30
2018-03-06T15:53:26.113Z,63.17
2018-03-06T15:55:55.375Z,59.10
2018-03-06T15:58:24.537Z,63.83
2018-03-06T16:00:53.690Z,63.77
2018-03-06T16:03:22.877Z,59.37
2018-03-06T16:05:52.062Z,62.27
2018-03-06T16:08:21.206Z,65.20
2018-03-06T16:10:50.398Z,62.63
2018-03-06T16:13:19.563Z,61.60
2018-03-06T16:15:48.752Z,64.47
2018-03-06T16:18:17.897Z,60.60
2018-03-06T16:20:47.092Z,56.70
2018-03-06T16:23:16.275Z,60.40
2018-03-06T16:25:45.417Z,58.97
2018-03-06T16:28:14.567Z,62.23
2018-03-06T16:30:43.713Z,59.27
2018-03-06T16:33:12.855Z,58.33
2018-03-06T16:35:42.051Z,57.57
2018-03-06T16:38:11.234Z,59.47
2018-03-06T16:40:40.388Z,59.60
2018-03-06T16:43:09.521Z,58.20
2018-03-06T16:45:38.714Z,58.60
2018-03-06T16:48:07.851Z,63.67
2018-03-06T16:50:37.019Z,65.90
2018-03-06T16:53:06.202Z,69.90
2018-03-06T16:55:35.345Z,64.40
2018-03-06T16:58:04.501Z,63.60
2018-03-06T17:00:33.726Z,64.27
2018-03-06T17:03:02.894Z,63.73
2018-03-06T17:05:32.058Z,65.47
2018-03-06T17:08:01.242Z,64.07
2018-03-06T17:10:30.476Z,65.07
2018-03-06T17:12:59.625Z,65.27
2018-03-06T17:15:28.786Z,65.13
2018-03-06T17:17:57.960Z,65.33
2018-03-06T17:20:27.113Z,65.73
2018-03-06T17:22:56.285Z,68.87
2018-03-06T17:25:25.434Z,68.50
2018-03-06T17:27:54.600Z,67.90
2018-03-06T17:30:23.773Z,67.13
2018-03-06T17:32:52.926Z,66.70
2018-03-06T17:35:22.066Z,67.47
2018-03-06T17:37:51.231Z,65.97
2018-03-06T17:40:20.388Z,69.67
2018-03-06T17:42:49.573Z,65.73
2018-03-06T17:45:18.902Z,67.70
2018-03-06T17:47:48.059Z,67.50
2018-03-06T17:50:17.214Z,69.57
2018-03-06T17:52:46.366Z,67.20
2018-03-06T17:55:15.511Z,68.27
2018-03-06T17:57:44.665Z,68.13
2018-03-06T18:00:13.804Z,65.17
2018-03-06T18:02:42.941Z,71.13
2018-03-06T18:05:12.118Z,66.67
2018-03-06T18:07:41.250Z,66.63
2018-03-06T18:10:10.394Z,70.50
2018-03-06T18:12:39.569Z,66.87
2018-03-06T18:15:08.734Z,74.00
2018-03-06T18:17:37.930Z,71.17
2018-03-06T18:20:07.083Z,69.13
2018-03-06T18:22:36.226Z,70.30
2018-03-06T18:25:05.393Z,79.47
2018-03-06T18:27:34.525Z,68.97
2018-03-06T18:30:03.678Z,66.47
2018-03-06T18:32:32.883Z,66.47
2018-03-06T18:35:02.030Z,67.47
2018-03-06T18:37:31.197Z,81.20
2018-03-06T18:40:00.392Z,74.60
2018-03-06T18:42:29.590Z,71.80
2018-03-06T18:44:58.790Z,69.10
2018-03-06T18:47:27.897Z,70.40
2018-03-06T18:50:03.585Z,69.97
2018-03-06T18:52:32.750Z,70.70
2018-03-06T18:55:01.966Z,71.80
2018-03-06T18:57:31.159Z,73.40
2018-03-06T19:00:21.101Z,73.70
2018-03-06T19:02:56.053Z,73.43
2018-03-06T19:05:31.094Z,75.30
2018-03-06T19:08:00.369Z,76.20
2018-03-06T19:10:29.535Z,74.00
2018-03-06T19:12:58.701Z,72.00
2018-03-06T19:15:27.914Z,75.20
2018-03-06T19:17:57.076Z,73.53
2018-03-06T19:20:26.227Z,72.77
2018-03-06T19:22:55.465Z,76.03
2018-03-06T19:25:24.618Z,92.83
2018-03-06T19:27:53.787Z,88.60
2018-03-06T19:30:23.031Z,82.40
2018-03-06T19:32:52.199Z,83.07
2018-03-06T19:35:21.523Z,81.63
2018-03-06T19:37:50.748Z,86.93
2018-03-06T19:40:19.863Z,87.20
2018-03-06T19:42:49.038Z,84.00
2018-03-06T19:45:18.249Z,87.63
2018-03-06T19:47:47.660Z,86.50
2018-03-06T19:50:16.844Z,86.17
2018-03-06T19:52:46.308Z,85.50
2018-03-06T19:55:15.803Z,86.97
2018-03-06T19:57:46.981Z,90.87
2018-03-06T20:00:16.376Z,90.93
2018-03-06T20:02:45.558Z,83.17
2018-03-06T20:05:15.019Z,88.03
2018-03-06T20:07:44.207Z,83.27
2018-03-06T20:10:13.600Z,83.20
2018-03-06T20:12:43.044Z,89.80
2018-03-06T20:15:19.069Z,83.07
2018-03-06T20:17:48.221Z,86.17
2018-03-06T20:20:17.660Z,86.20
2018-03-06T20:22:47.074Z,86.60
2018-03-06T20:25:22.372Z,78.77
2018-03-06T20:27:51.760Z,73.43
2018-03-06T20:30:26.942Z,73.90
2018-03-06T20:33:02.093Z,71.53
2018-03-06T20:35:31.381Z,72.63
2018-03-06T20:38:00.542Z,70.93
2018-03-06T20:40:34.289Z,68.33
2018-03-06T20:43:03.464Z,68.43
2018-03-06T20:45:38.372Z,69.63
2018-03-06T20:48:07.514Z,73.37
2018-03-06T20:50:36.695Z,67.63
2018-03-06T20:53:11.605Z,71.80
2018-03-06T20:55:40.753Z,82.67
2018-03-06T20:58:09.905Z,75.77
2018-03-06T21:00:39.113Z,74.40
2018-03-06T21:03:08.261Z,72.27
2018-03-06T21:05:37.434Z,76.20
2018-03-06T21:08:06.631Z,75.50
2018-03-06T21:10:35.777Z,75.70
2018-03-06T21:13:04.959Z,77.73
2018-03-06T21:15:34.151Z,75.60
2018-03-06T21:18:03.289Z,74.23
2018-03-06T21:22:54.691Z,72.53
2018-03-06T21:25:23.878Z,69.80
2018-03-06T21:27:53.015Z,73.23
2018-03-06T21:30:22.700Z,72.30
2018-03-06T21:32:51.846Z,76.23
2018-03-06T21:35:21.017Z,66.60
2018-03-06T21:37:50.186Z,70.60
2018-03-06T21:40:19.325Z,69.10
2018-03-06T21:42:48.488Z,73.00
2018-03-06T21:45:17.655Z,72.40
2018-03-06T21:47:46.813Z,72.37
2018-03-06T21:50:15.992Z,69.87
2018-03-06T21:52:45.155Z,73.23
2018-03-06T21:57:51.174Z,72.30
2018-03-06T22:00:20.312Z,72.00
2018-03-06T22:02:49.455Z,71.13
2018-03-06T22:05:18.630Z,73.07
2018-03-06T22:07:47.777Z,71.40
2018-03-06T22:10:16.913Z,73.20
2018-03-06T22:12:46.688Z,72.17
2018-03-06T22:15:15.824Z,71.33
2018-03-06T22:17:44.984Z,68.37
2018-03-06T22:20:14.142Z,68.40
2018-03-06T22:22:43.425Z,68.77
2018-03-06T22:25:12.595Z,68.43
2018-03-06T22:27:41.757Z,71.40
2018-03-06T22:30:11.004Z,70.67
2018-03-06T22:32:40.259Z,76.03
2018-03-06T22:35:09.505Z,76.10
2018-03-06T22:37:38.649Z,73.13
2018-03-06T22:40:07.808Z,74.73
2018-03-06T22:42:36.992Z,75.07
2018-03-06T22:45:06.163Z,72.77
2018-03-06T22:47:35.326Z,74.07
2018-03-06T22:50:04.485Z,74.87
2018-03-06T22:52:33.639Z,73.70
2018-03-06T22:55:02.781Z,74.90
2018-03-06T22:57:31.948Z,78.67
2018-03-06T23:00:01.097Z,76.30
2018-03-06T23:02:30.285Z,76.13
2018-03-06T23:04:59.448Z,74.37
2018-03-06T23:07:28.614Z,72.70
2018-03-06T23:09:57.804Z,73.03
2018-03-06T23:12:26.943Z,77.17
2018-03-06T23:14:56.144Z,78.97
2018-03-06T23:17:25.318Z,74.20
2018-03-06T23:19:54.476Z,75.77
2018-03-06T23:22:23.767Z,78.37
2018-03-06T23:24:52.957Z,80.07
2018-03-06T23:27:22.098Z,76.70
2018-03-06T23:29:51.282Z,76.13
2018-03-06T23:32:20.442Z,76.03
2018-03-06T23:34:49.639Z,75.97
2018-03-06T23:37:18.926Z,77.07
2018-03-06T23:39:48.074Z,76.60
2018-03-06T23:42:17.219Z,72.93
2018-03-06T23:44:46.410Z,74.60
2018-03-06T23:47:15.616Z,77.70
2018-03-06T23:49:44.787Z,73.80
2018-03-06T23:52:13.935Z,77.33
2018-03-06T23:54:43.104Z,75.87
2018-03-06T23:57:12.261Z,77.77
2018-03-06T23:59:41.426Z,76.13
